sensor_id;sensor_type;location;lat;lon;timestamp;pressure;altitude;pressure_sealevel;temperature;humidity
20942;BME280;10630;53.734;10.282;2022-10-15T00:01:27;100206.75;;;22.78;68.92
20942;BME280;10630;53.734;10.282;2022-10-15T00:04:00;100193.38;;;22.01;72.82
20942;BME280;10630;53.734;10.282;2022-10-15T00:06:32;100171.13;;;21.99;75.44
20942;BME280;10630;53.734;10.282;2022-10-15T00:08:59;100197.25;;;22.75;71.00
20942;BME280;10630;53.734;10.282;2022-10-15T00:11:27;100205.72;;;21.92;73.67
20942;BME280;10630;53.734;10.282;2022-10-15T00:13:56;99992.94;;;20.86;75.71
20942;BME280;10630;53.734;10.282;2022-10-15T00:16:25;100203.84;;;22.90;70.98
20942;BME280;10630;53.734;10.282;2022-10-15T00:18:57;100204.38;;;22.87;69.77
20942;BME280;10630;53.734;10.282;2022-10-15T00:21:25;100195.50;;;22.97;68.83
20942;BME280;10630;53.734;10.282;2022-10-15T00:23:54;100178.94;;;22.98;68.68
20942;BME280;10630;53.734;10.282;2022-10-15T00:26:24;100109.19;;;22.40;68.67
20942;BME280;10630;53.734;10.282;2022-10-15T00:28:55;100078.59;;;22.45;68.08
20942;BME280;10630;53.734;10.282;2022-10-15T00:31:24;100200.47;;;22.72;70.22
20942;BME280;10630;53.734;10.282;2022-10-15T00:33:54;100170.16;;;22.81;69.83
20942;BME280;10630;53.734;10.282;2022-10-15T00:36:23;100123.69;;;22.29;72.09
20942;BME280;10630;53.734;10.282;2022-10-15T00:38:51;100190.63;;;22.56;71.58
20942;BME280;10630;53.734;10.282;2022-10-15T00:41:27;99966.91;;;21.08;70.82
20942;BME280;10630;53.734;10.282;2022-10-15T00:43:59;100191.91;;;22.86;70.50
20942;BME280;10630;53.734;10.282;2022-10-15T00:46:30;100084.09;;;22.28;70.32
20942;BME280;10630;53.734;10.282;2022-10-15T00:49:18;100184.44;;;23.08;69.95
20942;BME280;10630;53.734;10.282;2022-10-15T00:51:58;100163.06;;;22.74;71.29
20942;BME280;10630;53.734;10.282;2022-10-15T00:54:28;100181.69;;;23.03;69.99
20942;BME280;10630;53.734;10.282;2022-10-15T00:56:56;100189.78;;;22.98;70.38
20942;BME280;10630;53.734;10.282;2022-10-15T00:59:25;100189.97;;;23.29;69.00
20942;BME280;10630;53.734;10.282;2022-10-15T01:01:53;99982.28;;;21.29;73.48
20942;BME280;10630;53.734;10.282;2022-10-15T01:04:20;100186.41;;;22.75;71.80
20942;BME280;10630;53.734;10.282;2022-10-15T01:06:47;100176.44;;;22.86;71.33
20942;BME280;10630;53.734;10.282;2022-10-15T01:09:14;100178.47;;;23.12;70.22
20942;BME280;10630;53.734;10.282;2022-10-15T01:11:48;100173.22;;;22.95;69.64
20942;BME280;10630;53.734;10.282;2022-10-15T01:16:49;100089.47;;;22.18;70.92
20942;BME280;10630;53.734;10.282;2022-10-15T01:25:09;100127.47;;;22.28;73.51
20942;BME280;10630;53.734;10.282;2022-10-15T01:27:56;100084.28;;;22.49;71.65
20942;BME280;10630;53.734;10.282;2022-10-15T01:30:42;100166.44;;;22.97;71.50
20942;BME280;10630;53.734;10.282;2022-10-15T01:33:36;100155.41;;;22.61;74.34
20942;BME280;10630;53.734;10.282;2022-10-15T01:36:16;100157.16;;;22.88;72.56
20942;BME280;10630;53.734;10.282;2022-10-15T01:38:57;100167.19;;;23.35;69.16
20942;BME280;10630;53.734;10.282;2022-10-15T01:41:46;100065.53;;;22.42;69.98
20942;BME280;10630;53.734;10.282;2022-10-15T01:44:24;100170.69;;;23.26;69.25
20942;BME280;10630;53.734;10.282;2022-10-15T01:47:04;100169.84;;;23.20;68.94
20942;BME280;10630;53.734;10.282;2022-10-15T01:49:35;100151.75;;;22.88;71.10
20942;BME280;10630;53.734;10.282;2022-10-15T01:52:08;100161.88;;;23.03;71.29
20942;BME280;10630;53.734;10.282;2022-10-15T01:54:38;100120.22;;;22.71;70.68
20942;BME280;10630;53.734;10.282;2022-10-15T01:57:05;100142.88;;;22.98;70.15
20942;BME280;10630;53.734;10.282;2022-10-15T01:59:33;99847.38;;;20.78;71.06
20942;BME280;10630;53.734;10.282;2022-10-15T02:02:01;100163.78;;;23.02;71.12
20942;BME280;10630;53.734;10.282;2022-10-15T02:04:29;100140.81;;;22.72;70.87
20942;BME280;10630;53.734;10.282;2022-10-15T02:07:06;100166.72;;;22.90;71.76
20942;BME280;10630;53.734;10.282;2022-10-15T02:13:01;100166.25;;;23.14;70.36
20942;BME280;10630;53.734;10.282;2022-10-15T02:18:28;100156.00;;;22.73;70.71
20942;BME280;10630;53.734;10.282;2022-10-15T02:21:16;100169.16;;;22.92;70.21
20942;BME280;10630;53.734;10.282;2022-10-15T02:23:52;100019.25;;;22.11;69.99
20942;BME280;10630;53.734;10.282;2022-10-15T02:26:23;100145.16;;;22.73;71.04
20942;BME280;10630;53.734;10.282;2022-10-15T02:28:55;100026.59;;;22.16;70.52
20942;BME280;10630;53.734;10.282;2022-10-15T02:31:24;100147.03;;;22.68;72.03
20942;BME280;10630;53.734;10.282;2022-10-15T02:33:54;100029.88;;;22.23;69.90
20942;BME280;10630;53.734;10.282;2022-10-15T02:36:22;100145.63;;;22.60;70.89
20942;BME280;10630;53.734;10.282;2022-10-15T02:38:50;100143.91;;;22.91;69.86
20942;BME280;10630;53.734;10.282;2022-10-15T02:41:17;100154.03;;;22.58;70.45
20942;BME280;10630;53.734;10.282;2022-10-15T02:43:44;100130.22;;;22.71;69.28
20942;BME280;10630;53.734;10.282;2022-10-15T02:46:13;100130.38;;;22.49;71.44
20942;BME280;10630;53.734;10.282;2022-10-15T02:48:41;100078.25;;;22.41;70.04
20942;BME280;10630;53.734;10.282;2022-10-15T02:51:07;100143.69;;;22.98;68.59
20942;BME280;10630;53.734;10.282;2022-10-15T02:53:34;100153.16;;;22.90;67.77
20942;BME280;10630;53.734;10.282;2022-10-15T02:56:00;100067.00;;;22.22;68.66
20942;BME280;10630;53.734;10.282;2022-10-15T02:58:27;100140.38;;;22.48;69.93
20942;BME280;10630;53.734;10.282;2022-10-15T03:00:54;100111.28;;;22.38;68.90
20942;BME280;10630;53.734;10.282;2022-10-15T03:03:21;100151.22;;;22.91;68.36
20942;BME280;10630;53.734;10.282;2022-10-15T03:05:48;100155.13;;;23.11;66.73
20942;BME280;10630;53.734;10.282;2022-10-15T03:08:14;100136.50;;;22.76;67.19
20942;BME280;10630;53.734;10.282;2022-10-15T03:10:41;100149.34;;;22.49;69.36
20942;BME280;10630;53.734;10.282;2022-10-15T03:13:08;100135.34;;;22.62;68.95
20942;BME280;10630;53.734;10.282;2022-10-15T03:15:35;100101.06;;;22.45;68.55
20942;BME280;10630;53.734;10.282;2022-10-15T03:18:03;100051.97;;;22.04;68.15
20942;BME280;10630;53.734;10.282;2022-10-15T03:20:29;100139.72;;;22.73;67.01
20942;BME280;10630;53.734;10.282;2022-10-15T03:22:56;100152.19;;;22.69;68.76
20942;BME280;10630;53.734;10.282;2022-10-15T03:25:22;100121.31;;;22.38;68.96
20942;BME280;10630;53.734;10.282;2022-10-15T03:27:49;100129.41;;;22.33;68.44
20942;BME280;10630;53.734;10.282;2022-10-15T03:30:18;100129.72;;;22.74;67.03
20942;BME280;10630;53.734;10.282;2022-10-15T03:32:45;100071.63;;;22.27;67.24
20942;BME280;10630;53.734;10.282;2022-10-15T03:35:13;100152.59;;;22.51;68.64
20942;BME280;10630;53.734;10.282;2022-10-15T03:37:39;100142.31;;;22.53;68.04
20942;BME280;10630;53.734;10.282;2022-10-15T03:40:07;100126.44;;;22.72;67.61
20942;BME280;10630;53.734;10.282;2022-10-15T03:42:39;100127.72;;;22.59;66.46
20942;BME280;10630;53.734;10.282;2022-10-15T03:45:06;100155.09;;;22.57;67.36
20942;BME280;10630;53.734;10.282;2022-10-15T03:47:33;100151.03;;;22.55;67.12
20942;BME280;10630;53.734;10.282;2022-10-15T03:50:00;100155.28;;;22.45;67.22
20942;BME280;10630;53.734;10.282;2022-10-15T03:52:26;100091.59;;;22.10;67.02
20942;BME280;10630;53.734;10.282;2022-10-15T03:54:53;100073.09;;;22.02;66.27
20942;BME280;10630;53.734;10.282;2022-10-15T03:57:20;100143.97;;;22.59;66.53
20942;BME280;10630;53.734;10.282;2022-10-15T03:59:46;100104.22;;;22.37;66.21
20942;BME280;10630;53.734;10.282;2022-10-15T04:02:13;100148.06;;;22.29;67.28
20942;BME280;10630;53.734;10.282;2022-10-15T04:04:39;100169.47;;;22.58;66.79
20942;BME280;10630;53.734;10.282;2022-10-15T04:07:06;100129.22;;;22.39;65.60
20942;BME280;10630;53.734;10.282;2022-10-15T04:09:32;100105.94;;;22.11;66.15
20942;BME280;10630;53.734;10.282;2022-10-15T04:11:59;100165.63;;;22.49;66.65
20942;BME280;10630;53.734;10.282;2022-10-15T04:14:25;100172.63;;;22.44;67.10
20942;BME280;10630;53.734;10.282;2022-10-15T04:16:53;100165.84;;;22.47;66.20
20942;BME280;10630;53.734;10.282;2022-10-15T04:19:20;100156.31;;;22.39;66.34
20942;BME280;10630;53.734;10.282;2022-10-15T04:21:46;100165.81;;;21.82;68.55
20942;BME280;10630;53.734;10.282;2022-10-15T04:24:13;100164.47;;;21.85;67.58
20942;BME280;10630;53.734;10.282;2022-10-15T04:26:39;100130.19;;;21.68;68.00
20942;BME280;10630;53.734;10.282;2022-10-15T04:29:06;100142.59;;;21.19;68.85
20942;BME280;10630;53.734;10.282;2022-10-15T04:31:32;100176.38;;;21.84;68.17
20942;BME280;10630;53.734;10.282;2022-10-15T04:33:59;100141.06;;;21.73;67.26
20942;BME280;10630;53.734;10.282;2022-10-15T04:36:25;100164.03;;;21.93;66.35
20942;BME280;10630;53.734;10.282;2022-10-15T04:38:52;100176.66;;;22.09;65.88
20942;BME280;10630;53.734;10.282;2022-10-15T04:41:18;100103.91;;;21.41;65.93
20942;BME280;10630;53.734;10.282;2022-10-15T04:43:45;100159.06;;;21.85;65.41
20942;BME280;10630;53.734;10.282;2022-10-15T04:46:14;100181.50;;;21.80;65.63
20942;BME280;10630;53.734;10.282;2022-10-15T04:48:41;100182.41;;;21.91;65.43
20942;BME280;10630;53.734;10.282;2022-10-15T04:51:14;100183.44;;;21.85;65.04
20942;BME280;10630;53.734;10.282;2022-10-15T04:53:41;100143.81;;;21.29;66.13
20942;BME280;10630;53.734;10.282;2022-10-15T04:56:11;100162.63;;;21.63;65.44
20942;BME280;10630;53.734;10.282;2022-10-15T04:58:41;100168.06;;;21.63;65.54
20942;BME280;10630;53.734;10.282;2022-10-15T05:01:10;100146.94;;;21.65;64.89
20942;BME280;10630;53.734;10.282;2022-10-15T05:03:41;100189.97;;;21.89;64.90
20942;BME280;10630;53.734;10.282;2022-10-15T05:06:13;100197.13;;;22.00;65.06
20942;BME280;10630;53.734;10.282;2022-10-15T05:08:41;100161.56;;;21.64;64.55
20942;BME280;10630;53.734;10.282;2022-10-15T05:11:20;100139.72;;;21.48;64.98
20942;BME280;10630;53.734;10.282;2022-10-15T05:13:47;100195.03;;;21.58;66.08
20942;BME280;10630;53.734;10.282;2022-10-15T05:16:19;100150.97;;;21.40;65.12
20942;BME280;10630;53.734;10.282;2022-10-15T05:18:47;100199.06;;;21.77;65.41
20942;BME280;10630;53.734;10.282;2022-10-15T05:21:14;100180.31;;;21.48;66.01
20942;BME280;10630;53.734;10.282;2022-10-15T05:23:41;99993.44;;;20.44;65.57
20942;BME280;10630;53.734;10.282;2022-10-15T05:26:11;100183.63;;;21.56;65.48
20942;BME280;10630;53.734;10.282;2022-10-15T05:28:38;100101.78;;;20.99;65.54
20942;BME280;10630;53.734;10.282;2022-10-15T05:31:39;100166.59;;;21.33;65.98
20942;BME280;10630;53.734;10.282;2022-10-15T05:33:59;100124.84;;;20.84;67.16
20942;BME280;10630;53.734;10.282;2022-10-15T05:36:31;100207.03;;;21.62;66.18
20942;BME280;10630;53.734;10.282;2022-10-15T05:38:59;100198.16;;;21.49;66.13
20942;BME280;10630;53.734;10.282;2022-10-15T05:41:27;100217.31;;;21.65;65.40
20942;BME280;10630;53.734;10.282;2022-10-15T05:43:56;100218.78;;;21.73;65.76
20942;BME280;10630;53.734;10.282;2022-10-15T05:46:23;100195.97;;;21.46;66.00
20942;BME280;10630;53.734;10.282;2022-10-15T05:48:52;100225.13;;;21.84;65.80
20942;BME280;10630;53.734;10.282;2022-10-15T05:51:19;100225.09;;;21.78;65.28
20942;BME280;10630;53.734;10.282;2022-10-15T05:53:46;100228.50;;;21.96;65.07
20942;BME280;10630;53.734;10.282;2022-10-15T05:56:14;100154.38;;;21.53;64.83
20942;BME280;10630;53.734;10.282;2022-10-15T05:58:40;100191.19;;;21.54;65.74
20942;BME280;10630;53.734;10.282;2022-10-15T06:01:09;100235.34;;;21.76;65.94
20942;BME280;10630;53.734;10.282;2022-10-15T06:03:36;100230.47;;;21.56;67.44
20942;BME280;10630;53.734;10.282;2022-10-15T06:06:03;100245.38;;;21.76;66.54
20942;BME280;10630;53.734;10.282;2022-10-15T06:08:30;100206.38;;;21.55;65.65
20942;BME280;10630;53.734;10.282;2022-10-15T06:11:02;100247.41;;;21.91;65.18
20942;BME280;10630;53.734;10.282;2022-10-15T06:13:36;100195.97;;;21.46;66.11
20942;BME280;10630;53.734;10.282;2022-10-15T06:16:03;100188.91;;;21.45;66.41
20942;BME280;10630;53.734;10.282;2022-10-15T06:18:30;100153.31;;;21.09;66.92
20942;BME280;10630;53.734;10.282;2022-10-15T06:20:57;100237.28;;;21.59;66.80
20942;BME280;10630;53.734;10.282;2022-10-15T06:23:23;100216.34;;;21.54;66.56
20942;BME280;10630;53.734;10.282;2022-10-15T06:25:50;100248.94;;;21.81;65.85
20942;BME280;10630;53.734;10.282;2022-10-15T06:28:16;100240.34;;;21.90;65.71
20942;BME280;10630;53.734;10.282;2022-10-15T06:30:43;100189.09;;;21.39;65.99
20942;BME280;10630;53.734;10.282;2022-10-15T06:33:10;100247.59;;;21.84;66.46
20942;BME280;10630;53.734;10.282;2022-10-15T06:35:41;100247.09;;;21.87;66.46
20942;BME280;10630;53.734;10.282;2022-10-15T06:38:08;100246.66;;;21.73;66.96
20942;BME280;10630;53.734;10.282;2022-10-15T06:40:36;99981.09;;;20.09;66.17
20942;BME280;10630;53.734;10.282;2022-10-15T06:43:09;100260.38;;;21.89;66.89
20942;BME280;10630;53.734;10.282;2022-10-15T06:45:38;100258.25;;;21.91;65.63
20942;BME280;10630;53.734;10.282;2022-10-15T06:48:05;100192.44;;;21.24;66.97
20942;BME280;10630;53.734;10.282;2022-10-15T06:50:33;100224.72;;;20.74;69.32
20942;BME280;10630;53.734;10.282;2022-10-15T06:53:00;100263.63;;;21.46;69.62
20942;BME280;10630;53.734;10.282;2022-10-15T06:55:27;100260.09;;;21.24;69.68
20942;BME280;10630;53.734;10.282;2022-10-15T06:57:57;100212.09;;;20.97;68.99
20942;BME280;10630;53.734;10.282;2022-10-15T07:00:24;100132.81;;;20.57;69.98
20942;BME280;10630;53.734;10.282;2022-10-15T07:02:51;100199.66;;;20.45;71.35
20942;BME280;10630;53.734;10.282;2022-10-15T07:05:18;100264.22;;;20.92;71.45
20942;BME280;10630;53.734;10.282;2022-10-15T07:07:52;100232.00;;;20.91;71.27
20942;BME280;10630;53.734;10.282;2022-10-15T07:10:18;100216.38;;;21.32;68.37
20942;BME280;10630;53.734;10.282;2022-10-15T07:12:45;100261.38;;;21.38;69.02
20942;BME280;10630;53.734;10.282;2022-10-15T07:15:12;100222.69;;;21.38;69.18
20942;BME280;10630;53.734;10.282;2022-10-15T07:17:38;100258.72;;;21.60;68.51
20942;BME280;10630;53.734;10.282;2022-10-15T07:20:06;100248.63;;;21.56;68.15
20942;BME280;10630;53.734;10.282;2022-10-15T07:22:32;100275.28;;;20.91;72.00
20942;BME280;10630;53.734;10.282;2022-10-15T07:24:59;100275.19;;;21.02;70.93
20942;BME280;10630;53.734;10.282;2022-10-15T07:27:26;100274.03;;;21.15;70.01
20942;BME280;10630;53.734;10.282;2022-10-15T07:29:53;100286.63;;;21.27;69.95
20942;BME280;10630;53.734;10.282;2022-10-15T07:32:19;100268.53;;;21.49;68.77
20942;BME280;10630;53.734;10.282;2022-10-15T07:34:46;100287.44;;;21.44;69.05
20942;BME280;10630;53.734;10.282;2022-10-15T07:37:13;100262.16;;;21.16;68.33
20942;BME280;10630;53.734;10.282;2022-10-15T07:39:39;100259.31;;;20.89;69.99
20942;BME280;10630;53.734;10.282;2022-10-15T07:42:07;100272.56;;;21.47;68.90
20942;BME280;10630;53.734;10.282;2022-10-15T07:44:33;100211.19;;;21.08;67.34
20942;BME280;10630;53.734;10.282;2022-10-15T07:47:00;100250.56;;;21.82;66.34
20942;BME280;10630;53.734;10.282;2022-10-15T07:49:26;100279.72;;;21.75;67.05
20942;BME280;10630;53.734;10.282;2022-10-15T07:51:53;100257.28;;;21.35;68.52
20942;BME280;10630;53.734;10.282;2022-10-15T07:54:19;100279.28;;;21.61;67.08
20942;BME280;10630;53.734;10.282;2022-10-15T07:56:46;100208.59;;;21.58;66.65
20942;BME280;10630;53.734;10.282;2022-10-15T07:59:12;100239.28;;;21.91;65.52
20942;BME280;10630;53.734;10.282;2022-10-15T08:01:39;100248.16;;;22.08;64.76
20942;BME280;10630;53.734;10.282;2022-10-15T08:04:05;100267.91;;;21.42;67.56
20942;BME280;10630;53.734;10.282;2022-10-15T08:06:32;100215.38;;;20.99;68.56
20942;BME280;10630;53.734;10.282;2022-10-15T08:08:58;100268.50;;;22.11;66.06
20942;BME280;10630;53.734;10.282;2022-10-15T08:11:25;100270.16;;;22.39;64.04
20942;BME280;10630;53.734;10.282;2022-10-15T08:13:52;100262.59;;;21.70;67.69
20942;BME280;10630;53.734;10.282;2022-10-15T08:16:18;100269.19;;;21.57;67.53
20942;BME280;10630;53.734;10.282;2022-10-15T08:18:45;100283.94;;;21.27;67.80
20942;BME280;10630;53.734;10.282;2022-10-15T08:21:12;100285.03;;;21.26;70.90
20942;BME280;10630;53.734;10.282;2022-10-15T08:23:39;100273.22;;;21.15;70.33
20942;BME280;10630;53.734;10.282;2022-10-15T08:26:06;100251.97;;;21.46;66.43
20942;BME280;10630;53.734;10.282;2022-10-15T08:28:33;100240.47;;;22.00;65.56
20942;BME280;10630;53.734;10.282;2022-10-15T08:31:00;100285.25;;;22.08;65.63
20942;BME280;10630;53.734;10.282;2022-10-15T08:33:33;100240.78;;;20.64;69.57
20942;BME280;10630;53.734;10.282;2022-10-15T08:35:59;100232.88;;;20.45;73.10
20942;BME280;10630;53.734;10.282;2022-10-15T08:38:26;100073.84;;;20.54;67.11
20942;BME280;10630;53.734;10.282;2022-10-15T08:40:56;100291.66;;;22.24;65.68
20942;BME280;10630;53.734;10.282;2022-10-15T08:43:39;100260.72;;;21.31;66.91
20942;BME280;10630;53.734;10.282;2022-10-15T08:46:32;100284.31;;;21.97;66.22
20942;BME280;10630;53.734;10.282;2022-10-15T08:49:02;100278.53;;;22.10;65.55
20942;BME280;10630;53.734;10.282;2022-10-15T08:51:41;100166.41;;;21.17;66.68
20942;BME280;10630;53.734;10.282;2022-10-15T08:54:15;100296.81;;;22.25;65.80
20942;BME280;10630;53.734;10.282;2022-10-15T08:56:45;100300.56;;;22.19;67.28
20942;BME280;10630;53.734;10.282;2022-10-15T08:59:44;100297.53;;;22.16;66.17
20942;BME280;10630;53.734;10.282;2022-10-15T09:02:21;100302.09;;;22.37;65.26
20942;BME280;10630;53.734;10.282;2022-10-15T09:04:58;100305.03;;;21.25;68.63
20942;BME280;10630;53.734;10.282;2022-10-15T09:08:06;100314.91;;;22.20;66.81
20942;BME280;10630;53.734;10.282;2022-10-15T09:15:49;100205.72;;;21.25;65.35
20942;BME280;10630;53.734;10.282;2022-10-15T09:18:20;100284.94;;;22.04;63.93
20942;BME280;10630;53.734;10.282;2022-10-15T09:20:48;100309.59;;;22.80;62.44
20942;BME280;10630;53.734;10.282;2022-10-15T09:23:21;100277.91;;;22.58;61.83
20942;BME280;10630;53.734;10.282;2022-10-15T09:25:54;100097.69;;;20.06;67.67
20942;BME280;10630;53.734;10.282;2022-10-15T09:28:25;100302.25;;;22.48;65.27
20942;BME280;10630;53.734;10.282;2022-10-15T09:30:56;100284.53;;;22.72;62.05
20942;BME280;10630;53.734;10.282;2022-10-15T09:33:34;100305.13;;;23.38;60.17
20942;BME280;10630;53.734;10.282;2022-10-15T09:36:13;100300.81;;;23.05;60.52
20942;BME280;10630;53.734;10.282;2022-10-15T09:41:43;100303.59;;;23.15;61.86
20942;BME280;10630;53.734;10.282;2022-10-15T09:44:14;100220.75;;;22.32;62.32
20942;BME280;10630;53.734;10.282;2022-10-15T09:46:49;100263.34;;;22.64;62.77
20942;BME280;10630;53.734;10.282;2022-10-15T09:49:23;100263.28;;;23.29;60.03
20942;BME280;10630;53.734;10.282;2022-10-15T09:57:30;100290.84;;;24.38;57.04
20942;BME280;10630;53.734;10.282;2022-10-15T10:00:00;100281.28;;;24.14;56.91
20942;BME280;10630;53.734;10.282;2022-10-15T10:02:29;100292.28;;;23.82;59.69
20942;BME280;10630;53.734;10.282;2022-10-15T10:04:56;100136.13;;;23.05;58.24
20942;BME280;10630;53.734;10.282;2022-10-15T10:10:25;100301.25;;;24.67;55.97
20942;BME280;10630;53.734;10.282;2022-10-15T10:12:53;100286.81;;;25.12;54.79
20942;BME280;10630;53.734;10.282;2022-10-15T10:17:52;100135.28;;;23.84;53.62
20942;BME280;10630;53.734;10.282;2022-10-15T10:20:21;100208.44;;;23.96;53.83
20942;BME280;10630;53.734;10.282;2022-10-15T10:23:00;100279.44;;;25.13;53.00
20942;BME280;10630;53.734;10.282;2022-10-15T10:25:33;100277.28;;;25.00;54.08
20942;BME280;10630;53.734;10.282;2022-10-15T10:33:45;100275.63;;;24.42;53.05
20942;BME280;10630;53.734;10.282;2022-10-15T10:36:33;100299.84;;;24.43;53.94
20942;BME280;10630;53.734;10.282;2022-10-15T10:39:26;100269.13;;;24.48;53.30
20942;BME280;10630;53.734;10.282;2022-10-15T10:47:11;100288.91;;;26.17;51.63
20942;BME280;10630;53.734;10.282;2022-10-15T10:50:10;100288.63;;;25.48;51.74
20942;BME280;10630;53.734;10.282;2022-10-15T10:52:52;100291.44;;;25.07;53.13
20942;BME280;10630;53.734;10.282;2022-10-15T10:55:22;100303.84;;;24.15;55.32
20942;BME280;10630;53.734;10.282;2022-10-15T10:57:56;100204.75;;;25.50;51.70
20942;BME280;10630;53.734;10.282;2022-10-15T11:00:41;100261.19;;;25.13;51.60
20942;BME280;10630;53.734;10.282;2022-10-15T11:03:30;100271.06;;;26.35;49.94
20942;BME280;10630;53.734;10.282;2022-10-15T11:08:53;100181.00;;;24.85;50.54
20942;BME280;10630;53.734;10.282;2022-10-15T11:19:56;100258.84;;;26.28;49.69
20942;BME280;10630;53.734;10.282;2022-10-15T11:36:40;100284.34;;;26.47;47.58
20942;BME280;10630;53.734;10.282;2022-10-15T11:47:12;100269.56;;;25.48;51.22
20942;BME280;10630;53.734;10.282;2022-10-15T11:57:32;100148.50;;;25.20;50.10
20942;BME280;10630;53.734;10.282;2022-10-15T12:00:11;100200.56;;;24.51;51.62
20942;BME280;10630;53.734;10.282;2022-10-15T12:02:41;100252.28;;;24.77;52.33
20942;BME280;10630;53.734;10.282;2022-10-15T12:05:24;100254.91;;;25.28;52.41
20942;BME280;10630;53.734;10.282;2022-10-15T12:07:54;100232.50;;;25.63;50.21
20942;BME280;10630;53.734;10.282;2022-10-15T12:16:24;100245.47;;;26.31;47.74
20942;BME280;10630;53.734;10.282;2022-10-15T12:21:43;100242.34;;;25.43;48.92
20942;BME280;10630;53.734;10.282;2022-10-15T12:32:44;100206.63;;;26.74;47.59
20942;BME280;10630;53.734;10.282;2022-10-15T12:37:42;100142.91;;;25.96;46.48
20942;BME280;10630;53.734;10.282;2022-10-15T12:40:29;100144.13;;;26.78;46.35
20942;BME280;10630;53.734;10.282;2022-10-15T12:43:09;100125.88;;;25.19;46.98
20942;BME280;10630;53.734;10.282;2022-10-15T12:45:39;100191.91;;;26.06;47.67
20942;BME280;10630;53.734;10.282;2022-10-15T12:48:27;99983.69;;;25.33;46.70
20942;BME280;10630;53.734;10.282;2022-10-15T12:53:53;100208.00;;;26.02;48.19
20942;BME280;10630;53.734;10.282;2022-10-15T12:56:34;100212.28;;;24.21;51.13
20942;BME280;10630;53.734;10.282;2022-10-15T12:59:02;100194.06;;;24.62;50.75
20942;BME280;10630;53.734;10.282;2022-10-15T13:01:49;100185.34;;;24.81;50.40
20942;BME280;10630;53.734;10.282;2022-10-15T13:04:18;100169.97;;;25.26;49.71
20942;BME280;10630;53.734;10.282;2022-10-15T13:06:45;100190.63;;;25.43;48.85
20942;BME280;10630;53.734;10.282;2022-10-15T13:11:50;100108.03;;;25.53;48.36
20942;BME280;10630;53.734;10.282;2022-10-15T13:17:17;100161.75;;;25.37;49.30
20942;BME280;10630;53.734;10.282;2022-10-15T13:19:55;100183.97;;;25.70;48.21
20942;BME280;10630;53.734;10.282;2022-10-15T13:22:28;100113.03;;;24.39;48.75
20942;BME280;10630;53.734;10.282;2022-10-15T13:24:55;100193.81;;;25.60;48.89
20942;BME280;10630;53.734;10.282;2022-10-15T13:27:33;100204.13;;;24.41;50.05
20942;BME280;10630;53.734;10.282;2022-10-15T13:32:38;100099.28;;;25.06;47.95
20942;BME280;10630;53.734;10.282;2022-10-15T13:35:11;100076.97;;;25.04;48.23
20942;BME280;10630;53.734;10.282;2022-10-15T13:37:39;100109.50;;;25.29;46.67
20942;BME280;10630;53.734;10.282;2022-10-15T13:40:17;100209.41;;;25.95;47.20
20942;BME280;10630;53.734;10.282;2022-10-15T13:42:59;100206.84;;;25.69;47.86
20942;BME280;10630;53.734;10.282;2022-10-15T13:45:26;100205.25;;;26.07;47.63
20942;BME280;10630;53.734;10.282;2022-10-15T13:47:53;100194.38;;;25.57;47.19
20942;BME280;10630;53.734;10.282;2022-10-15T13:50:28;100198.25;;;25.41;48.32
20942;BME280;10630;53.734;10.282;2022-10-15T13:55:36;100200.59;;;24.77;49.76
20942;BME280;10630;53.734;10.282;2022-10-15T13:58:25;100192.38;;;24.97;49.26
20942;BME280;10630;53.734;10.282;2022-10-15T14:01:13;100184.34;;;25.37;48.68
20942;BME280;10630;53.734;10.282;2022-10-15T14:03:47;100180.13;;;25.05;49.06
20942;BME280;10630;53.734;10.282;2022-10-15T14:06:26;100067.94;;;24.07;49.21
20942;BME280;10630;53.734;10.282;2022-10-15T14:09:17;100103.50;;;25.33;48.05
20942;BME280;10630;53.734;10.282;2022-10-15T14:11:44;100165.47;;;25.62;48.03
20942;BME280;10630;53.734;10.282;2022-10-15T14:17:00;100152.56;;;25.22;48.66
20942;BME280;10630;53.734;10.282;2022-10-15T14:19:29;100140.91;;;25.11;48.00
20942;BME280;10630;53.734;10.282;2022-10-15T14:21:59;100084.28;;;25.08;47.97
20942;BME280;10630;53.734;10.282;2022-10-15T14:24:36;100082.50;;;24.83;48.45
20942;BME280;10630;53.734;10.282;2022-10-15T14:29:52;100132.19;;;25.70;47.12
20942;BME280;10630;53.734;10.282;2022-10-15T14:32:29;100149.00;;;25.22;48.38
20942;BME280;10630;53.734;10.282;2022-10-15T14:35:01;100142.38;;;25.94;47.21
20942;BME280;10630;53.734;10.282;2022-10-15T14:42:47;100157.06;;;24.56;50.84
20942;BME280;10630;53.734;10.282;2022-10-15T14:47:48;100138.91;;;25.27;49.38
20942;BME280;10630;53.734;10.282;2022-10-15T14:50:17;100148.53;;;25.70;48.32
20942;BME280;10630;53.734;10.282;2022-10-15T14:52:50;100143.00;;;25.30;48.88
20942;BME280;10630;53.734;10.282;2022-10-15T14:55:34;100140.75;;;25.48;48.96
20942;BME280;10630;53.734;10.282;2022-10-15T14:58:16;100149.47;;;24.69;49.57
20942;BME280;10630;53.734;10.282;2022-10-15T15:00:46;100147.22;;;24.91;50.39
20942;BME280;10630;53.734;10.282;2022-10-15T15:03:17;100092.81;;;24.91;49.85
20942;BME280;10630;53.734;10.282;2022-10-15T15:05:50;100110.56;;;24.68;49.71
20942;BME280;10630;53.734;10.282;2022-10-15T15:08:18;100022.78;;;24.37;50.02
20942;BME280;10630;53.734;10.282;2022-10-15T15:10:46;100032.41;;;24.89;49.45
20942;BME280;10630;53.734;10.282;2022-10-15T15:13:27;100063.22;;;25.29;49.18